Terminal Aerodrome Forecast
Issued by NWS El Paso, TX

Current Version | Previous Version | Text Only | Print | Product List | Glossary On
Versions: 1 2 3 4 5 6 7 8 9 10 11 12 13 14 15 16
000
FTUS44 KEPZ 210201 AAA
TAFELP
TAF AMD
KELP 210201Z 2102/2124 20008KT P6SM VCTS SCT070CB SCT140 BKN250
      TEMPO 2102/2104 VRB25G40KT 6SM TSRA BKN040CB
     FM210600 24011KT P6SM VCSH SCT050 BKN140 BKN250
     FM211800 19009KT P6SM VCTS SCT070CB SCT140 BKN250=

USA.gov is the U.S. government's official web portal to all federal, state and local government web resources and services.